Absecon Highlands, NJ

1:32 PM EDT on July 26, 2017 (GMT -0400)
Galloway Twp Police Dept | | Change Station

Elev 30 ft 39.46 °N, 74.50 °W | Updated 18 seconds ago

Overcast
Overcast
71.2 °F
Feels Like 73 °F
N
5.0
Wind Variable Wind from East
Gusts 10.0 mph

Today
High -- | Low -- °F
--% Chance of Precip.
Yesterday
High -- | Low -- °F
Precip. -- in
Pressure 30.21 in
Visibility 10.0 miles
Clouds Mostly Cloudy 3000 ft
Overcast 3400 ft
Heat Index 73 °F
Dew Point 63 °F
Humidity 75%
Rainfall 0.00 in
Snow Depth Not available.
5:52 AM 8:15 PM
Waxing Crescent, 14% visible
SPECI KACY 261724Z 08009KT 10SM BKN030 OVC034 23/16 A3021 RMK AO2 T02330161
Pressure 30.21 in
Visibility 10.0 miles
Clouds Mostly Cloudy 3000 ft
Overcast 3400 ft
Heat Index 73 °F
Dew Point 63 °F
Humidity 75%
Rainfall 0.00 in
Snow Depth Not available.
5:52 AM 8:15 PM
Waxing Crescent, 14% visible
SPECI KACY 261724Z 08009KT 10SM BKN030 OVC034 23/16 A3021 RMK AO2 T02330161

Get Severe Weather Alerts

Thanks for signing up!

Be on the lookout for a verification email in your inbox.

You'll start receiving the daily forecast at 6 AM.

×

10-Day Weather Forecast

Almanac

Astronomy

Jul. 26, 2017 Rise Set
Actual Time
Civil Twilight
Nautical Twilight
Astronomical Twilight
Moon
Length of Visible Light
Length of Day
Tomorrow will be .
, % of the Moon is Illuminated

Today's Extremes

State Highs State Lows

Community

WunderPhotos

Category 6

Welcome to Category 6. This is the collective home for Weather Underground's featured writeups by Dr. Jeff Masters (right), Bob Henson (left), Chris Burt, and other regular contributors.

Nearby

Air Quality

  Air Quality AQ Index Pollutant
Not available.

Snow Depth

Station Depth Elevation

Earthquake Activity

City Distance Mag. Time & Date
Minimum magnitude displayed is 2.5.

Coastal Water Temperatures

Place Temperature

Stations

Nearby Weather Stations

Station Location Temp. Windchill Dew Point Humidity Wind Precip. Elev Updated Type
                   

Watches & Warnings

There are currently no watches in effect.